Time;durP1;ratioP1;P1;durP2;ratioP2;P2;SDS_P1;SDS_P2;PMS_P1;PMS_P2;Temp;Humidity;BMP_temperature;BMP_pressure;BME280_temperature;BME280_humidity;BME280_pressure;Samples;Min_cycle;Max_cycle;Signal;HPM_P1;HPM_P2
2021/04/07 00:00:54;;;;;;;2.90;1.20;;;;;;;;;;5019930;28;20067;-77
2021/04/07 00:03:20;;;;;;;2.90;1.10;;;;;;;;;;5036287;28;20049;-77
2021/04/07 00:05:45;;;;;;;2.27;1.10;;;;;;;;;;5036535;28;20044;-77
2021/04/07 00:08:11;;;;;;;3.50;1.40;;;;;;;;;;5019820;28;20588;-77
2021/04/07 00:10:40;;;;;;;2.67;1.10;;;;;;;;;;5036213;28;20025;-77
2021/04/07 00:13:06;;;;;;;2.85;1.13;;;;;;;;;;5020133;28;20025;-76
2021/04/07 00:15:31;;;;;;;2.03;1.10;;;;;;;;;;5019752;28;20472;-77
2021/04/07 00:17:57;;;;;;;3.80;1.20;;;;;;;;;;5035968;28;20049;-77
2021/04/07 00:20:24;;;;;;;3.37;1.13;;;;;;;;;;5003322;28;20475;-77
2021/04/07 00:22:50;;;;;;;3.17;1.20;;;;;;;;;;5019586;28;20021;-77
2021/04/07 00:25:16;;;;;;;2.57;1.00;;;;;;;;;;5019331;28;20392;-77
2021/04/07 00:27:43;;;;;;;2.03;0.90;;;;;;;;;;5019508;28;20025;-77
2021/04/07 00:30:09;;;;;;;3.17;1.42;;;;;;;;;;5019805;28;20563;-77
2021/04/07 00:32:35;;;;;;;2.13;1.10;;;;;;;;;;5035819;28;20460;-77
2021/04/07 00:35:00;;;;;;;3.57;1.00;;;;;;;;;;5019332;28;20066;-77
2021/04/07 00:37:26;;;;;;;2.27;1.10;;;;;;;;;;5035599;28;20400;-77
2021/04/07 00:39:52;;;;;;;2.67;1.07;;;;;;;;;;5035547;28;20025;-77
2021/04/07 00:42:17;;;;;;;2.63;1.13;;;;;;;;;;5019741;28;20044;-77
2021/04/07 00:44:42;;;;;;;2.33;1.00;;;;;;;;;;5035524;28;20064;-77
2021/04/07 00:47:08;;;;;;;2.47;0.97;;;;;;;;;;5035389;28;20487;-76
2021/04/07 00:49:33;;;;;;;1.73;0.90;;;;;;;;;;5019180;28;20169;-77
2021/04/07 00:51:58;;;;;;;2.20;1.00;;;;;;;;;;5035354;28;20029;-76
2021/04/07 00:54:24;;;;;;;2.63;1.10;;;;;;;;;;5053617;28;20052;-76
2021/04/07 00:56:49;;;;;;;2.47;0.93;;;;;;;;;;5035352;28;20100;-76
2021/04/07 00:59:16;;;;;;;2.43;0.90;;;;;;;;;;5018898;28;20395;-76
2021/04/07 01:01:41;;;;;;;2.67;1.00;;;;;;;;;;5019174;28;20051;-77
2021/04/07 01:04:07;;;;;;;2.53;0.87;;;;;;;;;;5034899;28;20120;-77
2021/04/07 01:06:33;;;;;;;3.13;1.13;;;;;;;;;;5035268;28;20017;-77
2021/04/07 01:08:58;;;;;;;2.67;1.10;;;;;;;;;;5018802;28;20067;-77
2021/04/07 01:11:24;;;;;;;4.27;0.93;;;;;;;;;;5018673;28;20060;-77
2021/04/07 01:13:49;;;;;;;2.23;1.00;;;;;;;;;;5035171;28;20056;-77
2021/04/07 01:16:14;;;;;;;2.13;0.97;;;;;;;;;;5035208;28;20472;-76
2021/04/07 01:18:40;;;;;;;2.70;1.07;;;;;;;;;;5035192;28;20076;-76
2021/04/07 01:21:06;;;;;;;4.40;1.00;;;;;;;;;;5052898;28;20059;-76
2021/04/07 01:23:31;;;;;;;2.05;0.90;;;;;;;;;;5018593;28;20040;-76
2021/04/07 01:25:56;;;;;;;2.00;0.83;;;;;;;;;;5018893;28;20445;-77
2021/04/07 01:28:22;;;;;;;1.80;0.87;;;;;;;;;;5018675;28;20029;-76
2021/04/07 01:30:47;;;;;;;2.33;1.00;;;;;;;;;;5019918;28;20120;-77
2021/04/07 01:33:20;;;;;;;2.63;1.10;;;;;;;;;;5023861;28;20079;-77
2021/04/07 01:35:45;;;;;;;2.33;1.08;;;;;;;;;;5046508;28;20503;-76
2021/04/07 01:38:11;;;;;;;2.27;0.90;;;;;;;;;;5018383;28;20060;-76
2021/04/07 01:40:36;;;;;;;2.60;0.93;;;;;;;;;;5018650;28;20025;-76
2021/04/07 01:43:02;;;;;;;2.13;0.80;;;;;;;;;;5018664;28;20060;-77
2021/04/07 01:45:27;;;;;;;3.20;0.90;;;;;;;;;;5034844;28;20021;-77
2021/04/07 01:47:54;;;;;;;2.03;0.97;;;;;;;;;;5018341;28;20029;-76
2021/04/07 01:50:19;;;;;;;;;;;;;;;;;;5019082;28;20388;-76
2021/04/07 01:52:44;;;;;;;1.90;1.00;;;;;;;;;;5034911;28;19912;-77
2021/04/07 01:55:10;;;;;;;2.13;0.80;;;;;;;;;;5034729;28;20275;-76
2021/04/07 01:57:36;;;;;;;2.70;1.00;;;;;;;;;;5018354;28;20472;-77
2021/04/07 02:00:01;;;;;;;2.07;0.80;;;;;;;;;;5018096;28;20025;-77
2021/04/07 02:02:27;;;;;;;2.70;1.10;;;;;;;;;;5035162;28;20387;-77
2021/04/07 02:04:52;;;;;;;2.70;0.90;;;;;;;;;;5001904;28;20055;-76
2021/04/07 02:07:17;;;;;;;2.30;0.80;;;;;;;;;;5018338;28;20068;-77
2021/04/07 02:09:43;;;;;;;2.03;0.90;;;;;;;;;;5018159;28;20029;-77
2021/04/07 02:12:08;;;;;;;1.23;0.80;;;;;;;;;;5034699;28;20036;-77
2021/04/07 02:14:34;;;;;;;2.00;1.00;;;;;;;;;;5034896;28;20041;-77
2021/04/07 02:17:01;;;;;;;3.13;0.77;;;;;;;;;;5004374;28;20025;-77
2021/04/07 02:19:28;;;;;;;3.05;0.98;;;;;;;;;;5021595;28;20116;-77
2021/04/07 02:22:07;;;;;;;2.83;0.90;;;;;;;;;;5021924;28;20082;-76
2021/04/07 02:24:33;;;;;;;3.63;0.95;;;;;;;;;;5037923;28;20033;-77
2021/04/07 02:27:01;;;;;;;1.58;0.73;;;;;;;;;;5038386;28;20025;-76
2021/04/07 02:29:26;;;;;;;2.22;0.88;;;;;;;;;;5021638;28;20050;-77
2021/04/07 02:31:51;;;;;;;1.60;0.83;;;;;;;;;;5005147;28;20484;-76
2021/04/07 02:34:17;;;;;;;1.93;0.90;;;;;;;;;;5055898;28;20444;-77
2021/04/07 02:36:42;;;;;;;2.27;0.87;;;;;;;;;;5021433;28;20025;-77
2021/04/07 02:39:07;;;;;;;1.77;0.63;;;;;;;;;;5055787;28;20096;-77
2021/04/07 02:41:33;;;;;;;1.77;0.80;;;;;;;;;;5004954;28;20112;-77
2021/04/07 02:43:58;;;;;;;1.77;0.70;;;;;;;;;;5021446;28;20064;-77
2021/04/07 02:46:23;;;;;;;2.07;0.77;;;;;;;;;;5037846;28;20021;-77
2021/04/07 02:48:49;;;;;;;2.10;0.90;;;;;;;;;;5037922;28;20067;-76
2021/04/07 02:51:14;;;;;;;1.40;0.80;;;;;;;;;;5021367;28;20043;-76
2021/04/07 02:53:39;;;;;;;2.10;0.80;;;;;;;;;;5021118;28;20497;-77
2021/04/07 02:56:05;;;;;;;1.70;0.70;;;;;;;;;;5020961;28;20029;-77
2021/04/07 02:58:30;;;;;;;1.10;0.60;;;;;;;;;;5037420;28;20111;-77
2021/04/07 03:00:56;;;;;;;1.80;0.83;;;;;;;;;;5037811;28;20027;-76
2021/04/07 03:03:21;;;;;;;2.27;0.67;;;;;;;;;;5037574;28;20112;-76
2021/04/07 03:05:47;;;;;;;1.77;0.77;;;;;;;;;;5037326;28;20055;-76
2021/04/07 03:08:13;;;;;;;1.20;0.70;;;;;;;;;;5020866;28;20021;-77
2021/04/07 03:10:38;;;;;;;1.48;0.75;;;;;;;;;;5037310;28;20096;-77
2021/04/07 03:13:04;;;;;;;1.40;0.70;;;;;;;;;;5037424;28;20133;-76
2021/04/07 03:15:29;;;;;;;2.37;0.70;;;;;;;;;;5020726;28;20081;-76
2021/04/07 03:17:54;;;;;;;2.00;0.80;;;;;;;;;;5037084;28;20116;-77
2021/04/07 03:20:20;;;;;;;1.80;0.80;;;;;;;;;;5020535;28;20116;-77
2021/04/07 03:22:45;;;;;;;2.27;0.80;;;;;;;;;;5054947;28;20020;-77
2021/04/07 03:25:11;;;;;;;1.40;0.67;;;;;;;;;;5020504;28;20499;-76
2021/04/07 03:27:36;;;;;;;2.20;0.80;;;;;;;;;;5036173;28;20589;-77
2021/04/07 03:30:02;;;;;;;1.53;0.63;;;;;;;;;;5000598;28;20079;-76
2021/04/07 03:32:28;;;;;;;1.58;0.70;;;;;;;;;;5020192;28;20028;-77
2021/04/07 03:34:53;;;;;;;1.40;0.70;;;;;;;;;;5037119;28;20021;-77
2021/04/07 03:37:19;;;;;;;0.97;0.67;;;;;;;;;;5037257;28;20072;-76
2021/04/07 03:39:44;;;;;;;1.57;0.70;;;;;;;;;;5036338;28;20071;-76
2021/04/07 03:42:09;;;;;;;1.70;0.80;;;;;;;;;;5018442;28;20052;-76
2021/04/07 03:44:35;;;;;;;1.97;0.70;;;;;;;;;;5036430;28;20028;-76
2021/04/07 03:47:00;;;;;;;1.60;0.80;;;;;;;;;;5036504;28;20118;-77
2021/04/07 03:49:25;;;;;;;1.40;0.70;;;;;;;;;;5036155;28;20112;-77
2021/04/07 03:51:51;;;;;;;1.87;0.80;;;;;;;;;;5019977;28;20116;-77
2021/04/07 03:54:17;;;;;;;1.90;0.70;;;;;;;;;;5036514;28;20056;-77
2021/04/07 03:56:42;;;;;;;1.30;0.70;;;;;;;;;;5036439;28;20059;-76
2021/04/07 03:59:08;;;;;;;2.03;0.67;;;;;;;;;;5020176;28;20033;-76
2021/04/07 04:01:33;;;;;;;0.93;0.60;;;;;;;;;;5019918;28;20515;-76
2021/04/07 04:03:58;;;;;;;1.40;0.60;;;;;;;;;;5036363;28;20073;-76
2021/04/07 04:06:24;;;;;;;2.00;0.77;;;;;;;;;;5019716;28;20017;-76
2021/04/07 04:08:49;;;;;;;1.13;0.50;;;;;;;;;;5053933;28;20374;-77
2021/04/07 04:11:14;;;;;;;1.30;0.70;;;;;;;;;;5019765;28;20124;-77
2021/04/07 04:13:40;;;;;;;1.00;0.60;;;;;;;;;;5036203;28;20027;-77
2021/04/07 04:16:05;;;;;;;1.30;0.53;;;;;;;;;;5035996;28;20100;-76
2021/04/07 04:18:30;;;;;;;2.10;0.80;;;;;;;;;;5053751;28;20435;-77
2021/04/07 04:20:56;;;;;;;1.30;0.60;;;;;;;;;;5035986;28;20444;-77
2021/04/07 04:23:21;;;;;;;1.27;0.70;;;;;;;;;;5035856;28;20053;-76
2021/04/07 04:25:46;;;;;;;1.00;0.60;;;;;;;;;;5035931;28;20100;-76
2021/04/07 04:28:12;;;;;;;1.27;0.50;;;;;;;;;;5035805;28;20048;-76
2021/04/07 04:30:37;;;;;;;1.80;0.70;;;;;;;;;;5019426;28;20494;-76
2021/04/07 04:33:03;;;;;;;1.20;0.60;;;;;;;;;;5035979;28;20480;-76
2021/04/07 04:35:28;;;;;;;3.70;0.90;;;;;;;;;;5035979;28;20107;-76
2021/04/07 04:37:53;;;;;;;1.40;0.60;;;;;;;;;;5053646;28;20108;-76
2021/04/07 04:40:19;;;;;;;2.47;0.80;;;;;;;;;;5035734;28;20037;-76
2021/04/07 04:42:44;;;;;;;1.20;0.60;;;;;;;;;;5053388;28;20091;-76
2021/04/07 04:45:10;;;;;;;1.77;0.70;;;;;;;;;;5035667;28;20061;-76
2021/04/07 04:47:35;;;;;;;1.53;0.60;;;;;;;;;;5019170;28;20028;-76
2021/04/07 04:50:02;;;;;;;1.20;0.70;;;;;;;;;;5019077;28;20472;-76
2021/04/07 04:52:27;;;;;;;;;;;;;;;;;;5019652;28;20032;-76
2021/04/07 04:54:52;;;;;;;2.28;0.75;;;;;;;;;;5035701;28;19912;-76
2021/04/07 04:57:18;;;;;;;1.70;0.70;;;;;;;;;;5019083;28;20116;-76
2021/04/07 04:59:43;;;;;;;1.10;0.50;;;;;;;;;;5035210;28;20060;-76
2021/04/07 05:02:09;;;;;;;1.57;0.50;;;;;;;;;;5019097;28;20024;-76
2021/04/07 05:04:34;;;;;;;1.37;0.60;;;;;;;;;;5052135;28;20025;-75
2021/04/07 05:06:59;;;;;;;1.27;0.60;;;;;;;;;;5035402;28;20136;-76
2021/04/07 05:09:25;;;;;;;1.10;0.50;;;;;;;;;;5035232;28;20116;-76
2021/04/07 05:11:50;;;;;;;1.17;0.60;;;;;;;;;;5035192;28;20472;-76
2021/04/07 05:14:17;;;;;;;0.83;0.50;;;;;;;;;;5052959;28;20547;-76
2021/04/07 05:16:42;;;;;;;1.02;0.57;;;;;;;;;;5019174;28;20032;-76
2021/04/07 05:19:08;;;;;;;1.57;0.70;;;;;;;;;;5053019;28;20539;-76
2021/04/07 05:21:33;;;;;;;1.07;0.60;;;;;;;;;;5052873;28;20072;-76
2021/04/07 05:23:58;;;;;;;1.33;0.60;;;;;;;;;;5035023;28;20075;-76
2021/04/07 05:26:24;;;;;;;1.30;0.60;;;;;;;;;;5018166;28;20055;-75
2021/04/07 05:28:49;;;;;;;2.00;0.60;;;;;;;;;;5027308;28;20117;-75
2021/04/07 05:31:14;;;;;;;0.80;0.60;;;;;;;;;;5031861;28;20112;-76
2021/04/07 05:33:41;;;;;;;1.07;0.47;;;;;;;;;;5035032;28;20021;-76
2021/04/07 05:36:07;;;;;;;;;;;;;;;;;;5019283;28;20491;-76
2021/04/07 05:38:33;;;;;;;1.63;0.60;;;;;;;;;;5052840;28;19908;-76
2021/04/07 05:40:58;;;;;;;1.50;0.50;;;;;;;;;;5018859;28;20040;-76
2021/04/07 05:43:24;;;;;;;1.03;0.53;;;;;;;;;;5018729;28;20037;-76
2021/04/07 05:45:49;;;;;;;1.77;0.60;;;;;;;;;;5052662;28;20025;-76
2021/04/07 05:48:15;;;;;;;1.23;0.50;;;;;;;;;;5018414;28;20621;-76
2021/04/07 05:50:42;;;;;;;1.23;0.60;;;;;;;;;;5035563;28;20487;-75
2021/04/07 05:53:07;;;;;;;0.98;0.40;;;;;;;;;;5022550;28;20033;-76
2021/04/07 05:55:33;;;;;;;1.27;0.50;;;;;;;;;;5038813;28;20017;-76
2021/04/07 05:58:03;;;;;;;1.10;0.40;;;;;;;;;;5022230;28;20020;-76
2021/04/07 06:00:29;;;;;;;1.25;0.60;;;;;;;;;;5022272;28;20444;-75
2021/04/07 06:02:55;;;;;;;1.53;0.60;;;;;;;;;;5022191;28;20021;-76
2021/04/07 06:05:22;;;;;;;1.17;0.47;;;;;;;;;;5005742;28;20028;-76
2021/04/07 06:07:47;;;;;;;1.35;0.55;;;;;;;;;;5038673;28;20036;-76
2021/04/07 06:10:13;;;;;;;1.73;0.60;;;;;;;;;;5021944;28;20025;-76
2021/04/07 06:12:38;;;;;;;1.42;0.50;;;;;;;;;;5021916;28;20024;-75
2021/04/07 06:15:05;;;;;;;1.50;0.50;;;;;;;;;;5038366;28;20029;-76
2021/04/07 06:17:30;;;;;;;;;;;;;;;;;;5022336;28;20108;-76
2021/04/07 06:19:55;;;;;;;0.87;0.40;;;;;;;;;;5038106;28;20134;-76
2021/04/07 06:22:21;;;;;;;2.50;0.50;;;;;;;;;;5038318;28;20634;-76
2021/04/07 06:24:46;;;;;;;1.70;0.50;;;;;;;;;;5038028;28;20126;-75
2021/04/07 06:27:11;;;;;;;0.93;0.57;;;;;;;;;;5021746;28;20056;-76
2021/04/07 06:29:37;;;;;;;1.50;0.53;;;;;;;;;;5038191;28;20108;-76
2021/04/07 06:32:02;;;;;;;0.73;0.43;;;;;;;;;;5005211;28;20067;-75
2021/04/07 06:34:28;;;;;;;1.27;0.43;;;;;;;;;;5038274;28;20063;-75
2021/04/07 06:36:54;;;;;;;0.80;0.43;;;;;;;;;;5037921;28;20020;-76
2021/04/07 06:39:19;;;;;;;1.27;0.60;;;;;;;;;;5035325;28;20029;-75
2021/04/07 06:41:45;;;;;;;0.83;0.50;;;;;;;;;;5012682;28;20029;-75
2021/04/07 06:44:10;;;;;;;0.90;0.40;;;;;;;;;;5037759;28;20044;-76
2021/04/07 06:46:35;;;;;;;0.97;0.50;;;;;;;;;;5021196;28;20479;-76
2021/04/07 06:49:01;;;;;;;0.70;0.43;;;;;;;;;;5021365;28;20061;-76
2021/04/07 06:51:26;;;;;;;1.60;0.50;;;;;;;;;;5038015;28;20148;-75
2021/04/07 06:53:52;;;;;;;1.20;0.50;;;;;;;;;;5020955;28;20021;-76
2021/04/07 06:56:20;;;;;;;1.07;0.50;;;;;;;;;;5037647;28;20043;-76
2021/04/07 06:58:45;;;;;;;0.68;0.40;;;;;;;;;;5020831;28;20037;-76
2021/04/07 07:01:11;;;;;;;2.00;0.50;;;;;;;;;;5021344;28;20031;-76
2021/04/07 07:03:36;;;;;;;0.93;0.50;;;;;;;;;;5020068;28;20040;-76
2021/04/07 07:06:02;;;;;;;1.43;0.50;;;;;;;;;;5055132;28;20032;-75
2021/04/07 07:08:29;;;;;;;1.40;0.40;;;;;;;;;;5037319;28;20120;-76
2021/04/07 07:10:55;;;;;;;1.40;0.40;;;;;;;;;;5021382;28;20392;-76
2021/04/07 07:13:25;;;;;;;1.60;0.50;;;;;;;;;;5037416;28;20031;-76
2021/04/07 07:15:50;;;;;;;1.00;0.40;;;;;;;;;;5021030;28;20078;-76
2021/04/07 07:18:27;;;;;;;0.93;0.50;;;;;;;;;;5037216;28;20442;-76
2021/04/07 07:20:53;;;;;;;0.80;0.40;;;;;;;;;;5005062;28;20075;-76
2021/04/07 07:23:30;;;;;;;1.35;0.50;;;;;;;;;;5020595;28;20488;-76
2021/04/07 07:26:08;;;;;;;1.25;0.68;;;;;;;;;;5004472;28;20512;-75
2021/04/07 07:28:51;;;;;;;1.08;0.50;;;;;;;;;;5036894;28;20032;-76
2021/04/07 07:31:26;;;;;;;1.45;0.50;;;;;;;;;;5020811;28;20021;-76
2021/04/07 07:33:52;;;;;;;1.17;0.50;;;;;;;;;;5054643;28;20024;-76
2021/04/07 07:36:18;;;;;;;1.17;0.40;;;;;;;;;;5020412;28;20092;-76
2021/04/07 07:38:44;;;;;;;0.77;0.30;;;;;;;;;;5054487;28;20159;-76
2021/04/07 07:41:10;;;;;;;;;;;;;;;;;;5020934;28;20438;-76
2021/04/07 07:43:36;;;;;;;1.33;0.50;;;;;;;;;;5020052;28;20018;-76
2021/04/07 07:46:13;;;;;;;2.00;0.40;;;;;;;;;;5036669;28;20025;-76
2021/04/07 07:48:39;;;;;;;1.13;0.68;;;;;;;;;;5003841;28;20041;-76
2021/04/07 07:51:15;;;;;;;;;;;;;;;;;;5004423;28;20476;-75
2021/04/07 07:53:44;;;;;;;1.10;0.55;;;;;;;;;;5037007;28;19916;-76
2021/04/07 07:56:10;;;;;;;1.05;0.50;;;;;;;;;;5037073;28;20021;-76
2021/04/07 07:58:40;;;;;;;1.00;0.40;;;;;;;;;;5036402;28;20116;-76
2021/04/07 08:01:06;;;;;;;0.55;0.30;;;;;;;;;;5020073;28;20039;-76
2021/04/07 08:03:31;;;;;;;1.73;0.55;;;;;;;;;;5020037;28;20059;-76
2021/04/07 08:05:58;;;;;;;1.23;0.50;;;;;;;;;;5054117;28;20037;-76
2021/04/07 08:08:24;;;;;;;0.95;0.40;;;;;;;;;;5019895;28;20039;-75
2021/04/07 08:10:49;;;;;;;0.97;0.50;;;;;;;;;;5036152;28;20021;-76
2021/04/07 08:13:14;;;;;;;0.80;0.40;;;;;;;;;;5019352;28;20052;-76
2021/04/07 08:15:40;;;;;;;1.00;0.40;;;;;;;;;;5054252;28;20104;-76
2021/04/07 08:18:05;;;;;;;0.30;0.30;;;;;;;;;;5019648;28;20098;-76
2021/04/07 08:20:31;;;;;;;2.00;0.60;;;;;;;;;;5036126;28;20025;-76
2021/04/07 08:22:56;;;;;;;1.50;0.50;;;;;;;;;;5035916;28;20025;-76
2021/04/07 08:25:22;;;;;;;1.23;0.47;;;;;;;;;;5019514;28;20057;-76
2021/04/07 08:27:49;;;;;;;1.00;0.40;;;;;;;;;;5019745;28;20021;-76
2021/04/07 08:30:15;;;;;;;1.83;0.45;;;;;;;;;;5035798;28;20061;-76
2021/04/07 08:32:40;;;;;;;1.83;0.50;;;;;;;;;;5035805;28;20024;-76
2021/04/07 08:35:06;;;;;;;0.40;0.37;;;;;;;;;;5019382;28;20032;-76
2021/04/07 08:37:32;;;;;;;0.70;0.40;;;;;;;;;;5019753;28;20413;-76
2021/04/07 08:40:09;;;;;;;1.17;0.30;;;;;;;;;;5019343;28;20027;-76
2021/04/07 08:42:34;;;;;;;0.90;0.47;;;;;;;;;;5035784;28;20071;-76
2021/04/07 08:45:04;;;;;;;0.93;0.40;;;;;;;;;;5018942;28;20068;-76
2021/04/07 08:47:31;;;;;;;1.60;0.40;;;;;;;;;;5036057;28;20048;-76
2021/04/07 08:50:07;;;;;;;0.85;0.40;;;;;;;;;;5010909;28;20036;-76
2021/04/07 08:52:47;;;;;;;0.60;0.40;;;;;;;;;;5025699;28;20028;-76
2021/04/07 08:55:16;;;;;;;1.08;0.40;;;;;;;;;;5020007;28;20084;-76
2021/04/07 08:57:41;;;;;;;0.82;0.40;;;;;;;;;;5019309;28;20391;-76
2021/04/07 09:00:14;;;;;;;1.70;0.47;;;;;;;;;;5019012;28;20102;-76
2021/04/07 09:02:53;;;;;;;1.55;0.60;;;;;;;;;;5036326;28;20067;-75
2021/04/07 09:05:34;;;;;;;1.33;0.50;;;;;;;;;;5052982;28;20087;-76
2021/04/07 09:08:00;;;;;;;0.98;0.43;;;;;;;;;;5002818;28;20029;-75
2021/04/07 09:10:25;;;;;;;1.40;0.40;;;;;;;;;;5035276;28;20021;-76
2021/04/07 09:12:52;;;;;;;0.97;0.40;;;;;;;;;;5035275;28;20023;-76
2021/04/07 09:15:21;;;;;;;0.95;0.32;;;;;;;;;;5019096;28;20096;-76
2021/04/07 09:17:47;;;;;;;1.30;0.40;;;;;;;;;;5035335;28;20036;-76
2021/04/07 09:20:34;;;;;;;1.23;0.43;;;;;;;;;;5035104;28;20388;-76
2021/04/07 09:23:16;;;;;;;1.10;0.45;;;;;;;;;;5052834;28;20083;-76
2021/04/07 09:25:50;;;;;;;1.55;0.40;;;;;;;;;;5020180;28;20063;-76
2021/04/07 09:28:15;;;;;;;1.35;0.32;;;;;;;;;;5021586;28;20040;-76
2021/04/07 09:30:46;;;;;;;1.20;0.50;;;;;;;;;;5037864;28;20029;-75
2021/04/07 09:33:17;;;;;;;0.65;0.40;;;;;;;;;;5021911;28;20036;-76
2021/04/07 09:35:57;;;;;;;1.63;0.40;;;;;;;;;;5037854;28;20048;-76
2021/04/07 09:38:22;;;;;;;1.10;0.45;;;;;;;;;;5038147;28;20049;-76
2021/04/07 09:40:48;;;;;;;2.57;0.60;;;;;;;;;;5037904;28;20025;-76
2021/04/07 09:43:13;;;;;;;1.93;0.60;;;;;;;;;;5037678;28;20032;-76
2021/04/07 09:45:38;;;;;;;1.70;0.40;;;;;;;;;;5037545;28;20472;-76
2021/04/07 09:48:04;;;;;;;0.73;0.40;;;;;;;;;;5055250;28;20033;-75
2021/04/07 09:50:30;;;;;;;0.50;0.30;;;;;;;;;;5037488;28;20108;-76
2021/04/07 09:52:56;;;;;;;1.40;0.60;;;;;;;;;;5055420;28;20024;-76
2021/04/07 09:55:25;;;;;;;1.80;0.43;;;;;;;;;;5037608;28;20106;-76
2021/04/07 09:58:01;;;;;;;1.00;0.50;;;;;;;;;;5020864;28;20057;-76
2021/04/07 10:00:28;;;;;;;0.88;0.30;;;;;;;;;;5055143;28;20032;-76
2021/04/07 10:02:53;;;;;;;1.42;0.40;;;;;;;;;;5055195;28;20033;-76
2021/04/07 10:05:31;;;;;;;2.60;0.57;;;;;;;;;;5020937;28;20553;-76
2021/04/07 10:08:16;;;;;;;0.60;0.35;;;;;;;;;;5004391;28;20025;-76
2021/04/07 10:10:41;;;;;;;1.40;0.68;;;;;;;;;;5037198;28;20020;-75
2021/04/07 10:13:07;;;;;;;1.30;0.50;;;;;;;;;;5020762;28;20391;-76
2021/04/07 10:15:33;;;;;;;0.90;0.40;;;;;;;;;;5037267;28;20051;-76
2021/04/07 10:18:03;;;;;;;1.27;0.40;;;;;;;;;;5037204;28;20029;-75
2021/04/07 10:20:29;;;;;;;2.22;0.40;;;;;;;;;;5037896;28;20112;-76
2021/04/07 10:22:56;;;;;;;0.77;0.50;;;;;;;;;;5037056;28;20100;-75
2021/04/07 10:25:33;;;;;;;1.83;0.50;;;;;;;;;;5111514;27;20355;-75
2021/04/07 10:28:02;;;;;;;1.30;0.40;;;;;;;;;;5092862;28;20039;-76
2021/04/07 10:30:35;;;;;;;1.00;0.50;;;;;;;;;;5109886;28;20028;-75
2021/04/07 10:33:00;;;;;;;0.98;0.40;;;;;;;;;;5109806;28;20023;-76
2021/04/07 10:35:27;;;;;;;0.87;0.40;;;;;;;;;;5109676;28;20533;-75
2021/04/07 10:38:09;;;;;;;0.55;0.30;;;;;;;;;;5110750;28;20020;-75
2021/04/07 10:40:35;;;;;;;0.75;0.30;;;;;;;;;;5109721;28;20040;-75
2021/04/07 10:43:13;;;;;;;;;;;;;;;;;;5110121;28;20111;-75
2021/04/07 10:45:39;;;;;;;1.42;0.50;;;;;;;;;;5109453;28;20386;-76
2021/04/07 10:48:05;;;;;;;0.50;0.40;;;;;;;;;;5109395;28;20043;-75
2021/04/07 10:50:31;;;;;;;1.13;0.40;;;;;;;;;;5092466;28;20036;-76
2021/04/07 10:52:57;;;;;;;0.60;0.32;;;;;;;;;;5104046;28;20039;-75
2021/04/07 10:55:24;;;;;;;0.50;0.37;;;;;;;;;;5101317;28;20122;-76
2021/04/07 10:57:51;;;;;;;;;;;;;;;;;;5098559;28;20020;-76
2021/04/07 11:00:33;;;;;;;1.02;0.40;;;;;;;;;;5094239;28;19912;-76
2021/04/07 11:02:58;;;;;;;0.90;0.40;;;;;;;;;;5103761;28;20063;-76
2021/04/07 11:05:25;;;;;;;1.10;0.40;;;;;;;;;;5061604;28;20042;-76
2021/04/07 11:08:04;;;;;;;1.20;0.40;;;;;;;;;;5072046;28;20040;-76
2021/04/07 11:10:43;;;;;;;1.75;0.40;;;;;;;;;;5088553;28;20024;-76
2021/04/07 11:13:09;;;;;;;1.00;0.32;;;;;;;;;;5072837;28;20035;-76
2021/04/07 11:15:34;;;;;;;1.10;0.40;;;;;;;;;;5089299;28;20021;-76
2021/04/07 11:18:00;;;;;;;0.80;0.47;;;;;;;;;;5087434;28;20055;-76
2021/04/07 11:20:26;;;;;;;0.67;0.30;;;;;;;;;;5091974;28;20045;-76
2021/04/07 11:22:51;;;;;;;1.00;0.40;;;;;;;;;;5110066;28;20475;-76
2021/04/07 11:25:17;;;;;;;0.80;0.30;;;;;;;;;;5079450;28;20066;-76
2021/04/07 11:27:42;;;;;;;1.27;0.50;;;;;;;;;;5070952;28;20047;-75
2021/04/07 11:30:08;;;;;;;0.60;0.30;;;;;;;;;;5071284;28;20696;-76
2021/04/07 11:32:36;;;;;;;0.70;0.40;;;;;;;;;;5074572;28;20036;-76
2021/04/07 11:35:22;;;;;;;0.93;0.30;;;;;;;;;;5098368;28;20020;-76
2021/04/07 11:37:56;;;;;;;0.95;0.40;;;;;;;;;;5061377;28;20032;-76
2021/04/07 11:41:00;;;;;;;0.60;0.30;;;;;;;;;;5043882;28;20024;-76
2021/04/07 11:43:15;;;;;;;0.50;0.28;;;;;;;;;;5077134;28;20501;-76
2021/04/07 11:45:41;;;;;;;0.93;0.30;;;;;;;;;;5076933;28;20036;-76
2021/04/07 11:48:08;;;;;;;1.70;0.40;;;;;;;;;;5074399;28;20055;-77
2021/04/07 11:50:34;;;;;;;1.27;0.40;;;;;;;;;;5074384;28;20029;-76
2021/04/07 11:52:59;;;;;;;1.00;0.30;;;;;;;;;;5057925;28;20028;-77
2021/04/07 11:55:24;;;;;;;0.40;0.30;;;;;;;;;;5091727;28;20063;-76
2021/04/07 11:57:50;;;;;;;1.00;0.30;;;;;;;;;;5080905;28;20485;-76
2021/04/07 12:00:16;;;;;;;0.60;0.30;;;;;;;;;;5074541;28;20677;-76
2021/04/07 12:02:46;;;;;;;1.10;0.30;;;;;;;;;;5074455;28;20047;-76
2021/04/07 12:05:13;;;;;;;2.00;0.60;;;;;;;;;;5075099;28;20501;-76
2021/04/07 12:07:39;;;;;;;0.70;0.30;;;;;;;;;;5041550;28;20035;-76
2021/04/07 12:10:05;;;;;;;0.80;0.33;;;;;;;;;;5078082;28;20475;-76
2021/04/07 12:12:31;;;;;;;1.65;0.43;;;;;;;;;;5071455;28;20082;-76
2021/04/07 12:14:56;;;;;;;0.70;0.30;;;;;;;;;;5059102;28;20040;-76
2021/04/07 12:17:21;;;;;;;0.33;0.30;;;;;;;;;;5076854;28;20035;-76
2021/04/07 12:19:47;;;;;;;1.47;0.37;;;;;;;;;;5078292;28;20035;-76
2021/04/07 12:22:12;;;;;;;0.90;0.50;;;;;;;;;;5077195;28;20107;-76
2021/04/07 12:24:38;;;;;;;1.10;0.40;;;;;;;;;;5070452;28;20038;-76
2021/04/07 12:27:04;;;;;;;0.63;0.30;;;;;;;;;;5073566;28;20028;-75
2021/04/07 12:29:29;;;;;;;1.33;0.50;;;;;;;;;;5073555;28;20124;-76
2021/04/07 12:31:55;;;;;;;0.90;0.30;;;;;;;;;;5073648;28;20108;-76
2021/04/07 12:34:20;;;;;;;0.97;0.30;;;;;;;;;;5088223;28;20099;-76
2021/04/07 12:36:46;;;;;;;0.57;0.33;;;;;;;;;;5080098;28;20060;-76
2021/04/07 12:39:11;;;;;;;0.67;0.27;;;;;;;;;;5093461;28;20055;-76
2021/04/07 12:42:00;;;;;;;0.60;0.40;;;;;;;;;;5074950;28;20282;-76
2021/04/07 12:44:25;;;;;;;1.02;0.40;;;;;;;;;;5069102;28;20024;-76
2021/04/07 12:46:50;;;;;;;0.73;0.37;;;;;;;;;;5076224;28;20087;-76
2021/04/07 12:49:16;;;;;;;0.57;0.33;;;;;;;;;;5072916;28;20207;-76
2021/04/07 12:51:41;;;;;;;0.50;0.30;;;;;;;;;;5043178;28;20031;-76
2021/04/07 12:54:08;;;;;;;1.10;0.30;;;;;;;;;;5093637;28;20466;-76
2021/04/07 12:56:33;;;;;;;;;;;;;;;;;;5082353;28;20028;-76
2021/04/07 12:58:58;;;;;;;0.80;0.30;;;;;;;;;;5074166;28;19950;-76
2021/04/07 13:01:24;;;;;;;1.00;0.30;;;;;;;;;;5082688;28;20171;-76
2021/04/07 13:03:49;;;;;;;0.93;0.40;;;;;;;;;;5078601;28;20453;-76
2021/04/07 13:06:15;;;;;;;0.50;0.30;;;;;;;;;;5093232;28;20028;-76
2021/04/07 13:08:40;;;;;;;0.67;0.30;;;;;;;;;;5101622;28;20028;-76
2021/04/07 13:11:06;;;;;;;1.20;0.40;;;;;;;;;;5086272;28;20470;-76
2021/04/07 13:13:32;;;;;;;1.15;0.40;;;;;;;;;;5055970;28;20063;-76
2021/04/07 13:15:57;;;;;;;1.00;0.50;;;;;;;;;;5096533;28;20427;-76
2021/04/07 13:18:23;;;;;;;1.13;0.40;;;;;;;;;;5097303;28;20534;-75
2021/04/07 13:20:49;;;;;;;1.40;0.30;;;;;;;;;;5075772;28;20054;-76
2021/04/07 13:23:14;;;;;;;0.90;0.30;;;;;;;;;;5092856;28;20039;-77
2021/04/07 13:25:40;;;;;;;1.00;0.40;;;;;;;;;;5076834;28;20119;-76
2021/04/07 13:28:06;;;;;;;2.30;0.30;;;;;;;;;;5091008;28;20499;-75
2021/04/07 13:30:33;;;;;;;2.00;0.57;;;;;;;;;;5075109;28;20464;-74
2021/04/07 13:33:15;;;;;;;2.97;0.35;;;;;;;;;;5074032;28;20104;-76
2021/04/07 13:35:46;;;;;;;1.15;0.30;;;;;;;;;;5076578;28;20515;-76
2021/04/07 13:41:00;;;;;;;1.75;0.40;;;;;;;;;;5077569;28;20478;-76
2021/04/07 13:43:26;;;;;;;2.00;0.50;;;;;;;;;;5072526;28;20464;-76
2021/04/07 13:45:51;;;;;;;5.13;0.50;;;;;;;;;;5072716;28;20108;-75
2021/04/07 13:48:22;;;;;;;1.10;0.40;;;;;;;;;;5073340;28;20731;-75
2021/04/07 13:50:47;;;;;;;2.65;0.50;;;;;;;;;;5057574;28;20032;-75
2021/04/07 13:53:16;;;;;;;1.27;0.40;;;;;;;;;;5072065;28;20024;-76
2021/04/07 13:55:43;;;;;;;4.32;0.60;;;;;;;;;;5055842;28;20456;-76
2021/04/07 13:58:08;;;;;;;3.00;0.40;;;;;;;;;;5071735;28;20024;-76
2021/04/07 14:00:34;;;;;;;4.63;0.50;;;;;;;;;;5081351;28;20067;-76
2021/04/07 14:02:59;;;;;;;1.17;0.38;;;;;;;;;;5039025;28;20032;-76
2021/04/07 14:05:25;;;;;;;2.57;0.40;;;;;;;;;;5073141;28;20099;-76
2021/04/07 14:07:51;;;;;;;1.50;0.40;;;;;;;;;;5071908;28;20024;-77
2021/04/07 14:10:18;;;;;;;;;;;;;;;;;;5076338;28;20394;-76
2021/04/07 14:12:48;;;;;;;1.48;0.40;;;;;;;;;;5092115;28;20438;-75
2021/04/07 14:15:14;;;;;;;3.63;0.52;;;;;;;;;;5085751;28;20077;-77
2021/04/07 14:17:39;;;;;;;3.53;0.50;;;;;;;;;;5057166;28;20024;-75
2021/04/07 14:20:06;;;;;;;2.70;0.70;;;;;;;;;;5060182;28;20480;-75
2021/04/07 14:22:32;;;;;;;2.55;0.40;;;;;;;;;;5093493;28;20027;-76
2021/04/07 14:24:57;;;;;;;1.27;0.40;;;;;;;;;;5092121;28;20085;-77
2021/04/07 14:27:23;;;;;;;1.63;0.50;;;;;;;;;;5094136;28;20054;-76
2021/04/07 14:29:48;;;;;;;1.03;0.33;;;;;;;;;;5082957;28;20032;-76
2021/04/07 14:32:13;;;;;;;2.77;0.40;;;;;;;;;;5071647;28;20058;-77
2021/04/07 14:34:39;;;;;;;1.30;0.50;;;;;;;;;;5071591;28;20052;-77
2021/04/07 14:37:05;;;;;;;2.00;0.30;;;;;;;;;;5071846;28;20111;-77
2021/04/07 14:39:31;;;;;;;2.50;0.40;;;;;;;;;;5080898;28;20036;-77
2021/04/07 14:41:56;;;;;;;3.10;0.40;;;;;;;;;;5092950;28;20452;-77
2021/04/07 14:44:22;;;;;;;1.83;0.30;;;;;;;;;;5093072;28;20051;-77
2021/04/07 14:46:47;;;;;;;1.03;0.50;;;;;;;;;;5074883;28;20060;-76